Terminal Aerodrome Forecast
Issued by NWS Charleston, WV

Home | Current Version | Previous Version | Text Only | Print | Product List | Glossary On
Versions: 1 2 3 4 5 6 7 8 9 10 11 12 13 14 15 16 17 18 19 20 21 22 23
000
FTUS41 KRLX 252329
TAFHTS
TAF
KHTS 252329Z 2600/2624 09003KT P6SM SKC
     FM260800 16005KT P6SM BKN030
     FM261100 15005KT P6SM OVC035
     FM261300 16005KT 6SM -SHRA OVC040
     FM261600 16010G20KT 4SM -SHRA VCTS OVC030CB
     FM262200 17008G15KT 6SM -SHRA OVC040=

USA.gov is the U.S. government's official web portal to all federal, state and local government web resources and services.